sensor_id;sensor_type;location;lat;lon;timestamp;P1;durP1;ratioP1;P2;durP2;ratioP2
61477;SDS011;47345;52.334;10.392;2022-10-30T00:01:38;17.20;;;5.80;;
61477;SDS011;47345;52.334;10.392;2022-10-30T00:04:10;16.90;;;5.90;;
61477;SDS011;47345;52.334;10.392;2022-10-30T00:06:41;8.90;;;5.60;;
61477;SDS011;47345;52.334;10.392;2022-10-30T00:09:11;12.60;;;5.70;;
61477;SDS011;47345;52.334;10.392;2022-10-30T00:11:42;14.70;;;5.80;;
61477;SDS011;47345;52.334;10.392;2022-10-30T00:14:12;8.80;;;5.10;;
61477;SDS011;47345;52.334;10.392;2022-10-30T00:16:44;9.90;;;5.40;;
61477;SDS011;47345;52.334;10.392;2022-10-30T00:19:15;11.50;;;5.40;;
61477;SDS011;47345;52.334;10.392;2022-10-30T00:21:46;9.40;;;5.70;;
61477;SDS011;47345;52.334;10.392;2022-10-30T00:24:16;8.50;;;5.30;;
61477;SDS011;47345;52.334;10.392;2022-10-30T00:26:47;12.30;;;5.30;;
61477;SDS011;47345;52.334;10.392;2022-10-30T00:29:17;9.40;;;5.70;;
61477;SDS011;47345;52.334;10.392;2022-10-30T00:31:50;9.40;;;5.40;;
61477;SDS011;47345;52.334;10.392;2022-10-30T00:34:21;8.60;;;5.10;;
61477;SDS011;47345;52.334;10.392;2022-10-30T00:36:52;12.50;;;5.50;;
61477;SDS011;47345;52.334;10.392;2022-10-30T00:39:22;9.30;;;4.70;;
61477;SDS011;47345;52.334;10.392;2022-10-30T00:41:53;10.70;;;5.10;;
61477;SDS011;47345;52.334;10.392;2022-10-30T00:44:33;7.90;;;5.20;;
61477;SDS011;47345;52.334;10.392;2022-10-30T00:47:08;10.80;;;5.10;;
61477;SDS011;47345;52.334;10.392;2022-10-30T00:49:46;9.10;;;4.70;;
61477;SDS011;47345;52.334;10.392;2022-10-30T00:52:21;9.30;;;4.80;;
61477;SDS011;47345;52.334;10.392;2022-10-30T00:54:54;11.40;;;4.80;;
61477;SDS011;47345;52.334;10.392;2022-10-30T00:57:29;10.00;;;4.70;;
61477;SDS011;47345;52.334;10.392;2022-10-30T01:00:00;14.30;;;4.70;;
61477;SDS011;47345;52.334;10.392;2022-10-30T01:02:32;10.90;;;4.70;;
61477;SDS011;47345;52.334;10.392;2022-10-30T01:05:03;8.60;;;5.40;;
61477;SDS011;47345;52.334;10.392;2022-10-30T01:07:34;8.90;;;5.10;;
61477;SDS011;47345;52.334;10.392;2022-10-30T01:10:06;10.00;;;5.20;;
61477;SDS011;47345;52.334;10.392;2022-10-30T01:12:38;6.70;;;4.60;;
61477;SDS011;47345;52.334;10.392;2022-10-30T01:15:10;8.40;;;4.80;;
61477;SDS011;47345;52.334;10.392;2022-10-30T01:20:45;13.10;;;4.80;;
61477;SDS011;47345;52.334;10.392;2022-10-30T01:23:30;8.20;;;5.00;;
61477;SDS011;47345;52.334;10.392;2022-10-30T01:26:13;10.10;;;4.70;;
61477;SDS011;47345;52.334;10.392;2022-10-30T01:28:58;11.00;;;4.70;;
61477;SDS011;47345;52.334;10.392;2022-10-30T01:31:46;6.60;;;4.30;;
61477;SDS011;47345;52.334;10.392;2022-10-30T01:34:28;10.80;;;5.10;;
61477;SDS011;47345;52.334;10.392;2022-10-30T01:37:05;6.50;;;4.30;;
61477;SDS011;47345;52.334;10.392;2022-10-30T01:39:41;10.90;;;4.70;;
61477;SDS011;47345;52.334;10.392;2022-10-30T01:45:18;10.60;;;4.50;;
61477;SDS011;47345;52.334;10.392;2022-10-30T01:48:12;7.80;;;4.60;;
61477;SDS011;47345;52.334;10.392;2022-10-30T01:50:54;11.70;;;4.50;;
61477;SDS011;47345;52.334;10.392;2022-10-30T01:53:35;7.20;;;4.50;;
61477;SDS011;47345;52.334;10.392;2022-10-30T01:56:14;10.80;;;4.20;;
61477;SDS011;47345;52.334;10.392;2022-10-30T01:58:54;10.00;;;4.80;;
61477;SDS011;47345;52.334;10.392;2022-10-30T02:01:31;6.90;;;4.60;;
61477;SDS011;47345;52.334;10.392;2022-10-30T02:04:03;7.60;;;4.50;;
61477;SDS011;47345;52.334;10.392;2022-10-30T02:06:34;9.40;;;4.70;;
61477;SDS011;47345;52.334;10.392;2022-10-30T02:09:05;10.20;;;4.30;;
61477;SDS011;47345;52.334;10.392;2022-10-30T02:11:36;7.20;;;4.70;;
61477;SDS011;47345;52.334;10.392;2022-10-30T02:14:08;12.00;;;5.00;;
61477;SDS011;47345;52.334;10.392;2022-10-30T02:16:41;8.10;;;4.70;;
61477;SDS011;47345;52.334;10.392;2022-10-30T02:19:16;7.80;;;4.70;;
61477;SDS011;47345;52.334;10.392;2022-10-30T02:21:47;9.70;;;4.60;;
61477;SDS011;47345;52.334;10.392;2022-10-30T02:24:18;8.30;;;4.60;;
61477;SDS011;47345;52.334;10.392;2022-10-30T02:26:49;10.70;;;5.40;;
61477;SDS011;47345;52.334;10.392;2022-10-30T02:29:19;6.40;;;4.50;;
61477;SDS011;47345;52.334;10.392;2022-10-30T02:31:50;9.50;;;4.90;;
61477;SDS011;47345;52.334;10.392;2022-10-30T02:34:21;10.00;;;5.00;;
61477;SDS011;47345;52.334;10.392;2022-10-30T02:36:51;12.80;;;4.40;;
61477;SDS011;47345;52.334;10.392;2022-10-30T02:39:22;5.90;;;4.30;;
61477;SDS011;47345;52.334;10.392;2022-10-30T02:41:52;15.40;;;5.20;;
61477;SDS011;47345;52.334;10.392;2022-10-30T02:44:23;7.00;;;4.30;;
61477;SDS011;47345;52.334;10.392;2022-10-30T02:46:54;9.30;;;4.60;;
61477;SDS011;47345;52.334;10.392;2022-10-30T02:49:24;7.40;;;4.20;;
61477;SDS011;47345;52.334;10.392;2022-10-30T02:51:55;9.30;;;4.40;;
61477;SDS011;47345;52.334;10.392;2022-10-30T02:54:25;9.60;;;4.40;;
61477;SDS011;47345;52.334;10.392;2022-10-30T02:56:56;7.90;;;4.70;;
61477;SDS011;47345;52.334;10.392;2022-10-30T02:59:27;8.40;;;4.70;;
61477;SDS011;47345;52.334;10.392;2022-10-30T03:02:02;8.40;;;4.70;;
61477;SDS011;47345;52.334;10.392;2022-10-30T03:04:33;5.10;;;4.10;;
61477;SDS011;47345;52.334;10.392;2022-10-30T03:07:03;8.30;;;4.70;;
61477;SDS011;47345;52.334;10.392;2022-10-30T03:09:34;7.10;;;4.50;;
61477;SDS011;47345;52.334;10.392;2022-10-30T03:12:05;12.20;;;5.30;;
61477;SDS011;47345;52.334;10.392;2022-10-30T03:14:36;7.90;;;4.90;;
61477;SDS011;47345;52.334;10.392;2022-10-30T03:17:07;9.20;;;4.10;;
61477;SDS011;47345;52.334;10.392;2022-10-30T03:19:37;7.80;;;4.60;;
61477;SDS011;47345;52.334;10.392;2022-10-30T03:22:08;8.70;;;4.30;;
61477;SDS011;47345;52.334;10.392;2022-10-30T03:24:38;7.00;;;4.40;;
61477;SDS011;47345;52.334;10.392;2022-10-30T03:27:09;10.40;;;5.20;;
61477;SDS011;47345;52.334;10.392;2022-10-30T03:29:40;7.40;;;4.60;;
61477;SDS011;47345;52.334;10.392;2022-10-30T03:32:11;10.10;;;4.60;;
61477;SDS011;47345;52.334;10.392;2022-10-30T03:34:41;9.10;;;4.70;;
61477;SDS011;47345;52.334;10.392;2022-10-30T03:37:12;7.00;;;3.90;;
61477;SDS011;47345;52.334;10.392;2022-10-30T03:39:43;10.10;;;4.10;;
61477;SDS011;47345;52.334;10.392;2022-10-30T03:42:14;7.20;;;4.30;;
61477;SDS011;47345;52.334;10.392;2022-10-30T03:44:45;6.40;;;3.70;;
61477;SDS011;47345;52.334;10.392;2022-10-30T03:47:15;5.50;;;3.90;;
61477;SDS011;47345;52.334;10.392;2022-10-30T03:49:46;12.70;;;4.50;;
61477;SDS011;47345;52.334;10.392;2022-10-30T03:52:16;6.70;;;4.10;;
61477;SDS011;47345;52.334;10.392;2022-10-30T03:54:47;12.50;;;4.30;;
61477;SDS011;47345;52.334;10.392;2022-10-30T03:57:18;8.40;;;3.90;;
61477;SDS011;47345;52.334;10.392;2022-10-30T03:59:49;5.90;;;3.60;;
61477;SDS011;47345;52.334;10.392;2022-10-30T04:02:20;11.80;;;4.40;;
61477;SDS011;47345;52.334;10.392;2022-10-30T04:04:50;7.70;;;4.30;;
61477;SDS011;47345;52.334;10.392;2022-10-30T04:07:21;7.70;;;3.80;;
61477;SDS011;47345;52.334;10.392;2022-10-30T04:09:51;8.60;;;4.10;;
61477;SDS011;47345;52.334;10.392;2022-10-30T04:12:21;6.30;;;3.80;;
61477;SDS011;47345;52.334;10.392;2022-10-30T04:14:52;5.50;;;3.50;;
61477;SDS011;47345;52.334;10.392;2022-10-30T04:17:23;8.00;;;3.70;;
61477;SDS011;47345;52.334;10.392;2022-10-30T04:19:53;7.20;;;3.30;;
61477;SDS011;47345;52.334;10.392;2022-10-30T04:22:24;7.90;;;4.00;;
61477;SDS011;47345;52.334;10.392;2022-10-30T04:24:54;9.40;;;3.90;;
61477;SDS011;47345;52.334;10.392;2022-10-30T04:27:25;6.20;;;3.60;;
61477;SDS011;47345;52.334;10.392;2022-10-30T04:29:55;6.20;;;3.80;;
61477;SDS011;47345;52.334;10.392;2022-10-30T04:32:26;13.50;;;3.90;;
61477;SDS011;47345;52.334;10.392;2022-10-30T04:34:56;6.80;;;3.80;;
61477;SDS011;47345;52.334;10.392;2022-10-30T04:37:27;5.30;;;3.40;;
61477;SDS011;47345;52.334;10.392;2022-10-30T04:39:57;8.70;;;3.80;;
61477;SDS011;47345;52.334;10.392;2022-10-30T04:42:28;6.80;;;4.10;;
61477;SDS011;47345;52.334;10.392;2022-10-30T04:44:58;4.60;;;3.30;;
61477;SDS011;47345;52.334;10.392;2022-10-30T04:47:31;6.30;;;3.50;;
61477;SDS011;47345;52.334;10.392;2022-10-30T04:50:02;5.70;;;3.30;;
61477;SDS011;47345;52.334;10.392;2022-10-30T04:52:33;8.60;;;3.60;;
61477;SDS011;47345;52.334;10.392;2022-10-30T04:55:05;8.30;;;3.70;;
61477;SDS011;47345;52.334;10.392;2022-10-30T04:57:38;12.80;;;3.70;;
61477;SDS011;47345;52.334;10.392;2022-10-30T05:00:10;7.80;;;3.30;;
61477;SDS011;47345;52.334;10.392;2022-10-30T05:02:42;7.10;;;3.80;;
61477;SDS011;47345;52.334;10.392;2022-10-30T05:05:13;6.70;;;3.40;;
61477;SDS011;47345;52.334;10.392;2022-10-30T05:07:44;10.30;;;4.60;;
61477;SDS011;47345;52.334;10.392;2022-10-30T05:10:14;6.60;;;4.00;;
61477;SDS011;47345;52.334;10.392;2022-10-30T05:12:45;7.90;;;3.80;;
61477;SDS011;47345;52.334;10.392;2022-10-30T05:15:16;8.70;;;4.10;;
61477;SDS011;47345;52.334;10.392;2022-10-30T05:17:49;6.50;;;3.50;;
61477;SDS011;47345;52.334;10.392;2022-10-30T05:20:20;6.20;;;3.60;;
61477;SDS011;47345;52.334;10.392;2022-10-30T05:22:54;7.90;;;4.10;;
61477;SDS011;47345;52.334;10.392;2022-10-30T05:25:26;5.60;;;3.50;;
61477;SDS011;47345;52.334;10.392;2022-10-30T05:27:57;9.90;;;3.20;;
61477;SDS011;47345;52.334;10.392;2022-10-30T05:30:30;3.80;;;2.90;;
61477;SDS011;47345;52.334;10.392;2022-10-30T05:33:02;5.90;;;3.60;;
61477;SDS011;47345;52.334;10.392;2022-10-30T05:35:34;7.50;;;3.50;;
61477;SDS011;47345;52.334;10.392;2022-10-30T05:38:05;5.90;;;3.10;;
61477;SDS011;47345;52.334;10.392;2022-10-30T05:40:36;6.20;;;3.50;;
61477;SDS011;47345;52.334;10.392;2022-10-30T05:43:06;4.70;;;3.30;;
61477;SDS011;47345;52.334;10.392;2022-10-30T05:45:38;5.40;;;3.30;;
61477;SDS011;47345;52.334;10.392;2022-10-30T05:48:08;5.10;;;3.10;;
61477;SDS011;47345;52.334;10.392;2022-10-30T05:50:39;9.20;;;3.40;;
61477;SDS011;47345;52.334;10.392;2022-10-30T05:53:10;9.90;;;3.80;;
61477;SDS011;47345;52.334;10.392;2022-10-30T05:55:40;6.10;;;3.10;;
61477;SDS011;47345;52.334;10.392;2022-10-30T05:58:12;5.50;;;3.10;;
61477;SDS011;47345;52.334;10.392;2022-10-30T06:00:42;9.60;;;3.60;;
61477;SDS011;47345;52.334;10.392;2022-10-30T06:03:13;6.20;;;3.60;;
61477;SDS011;47345;52.334;10.392;2022-10-30T06:05:44;5.80;;;3.50;;
61477;SDS011;47345;52.334;10.392;2022-10-30T06:08:15;6.40;;;3.50;;
61477;SDS011;47345;52.334;10.392;2022-10-30T06:10:47;7.70;;;3.60;;
61477;SDS011;47345;52.334;10.392;2022-10-30T06:13:17;5.60;;;3.10;;
61477;SDS011;47345;52.334;10.392;2022-10-30T06:15:48;7.70;;;4.00;;
61477;SDS011;47345;52.334;10.392;2022-10-30T06:18:18;8.50;;;3.40;;
61477;SDS011;47345;52.334;10.392;2022-10-30T06:20:49;4.40;;;3.40;;
61477;SDS011;47345;52.334;10.392;2022-10-30T06:23:22;6.50;;;3.20;;
61477;SDS011;47345;52.334;10.392;2022-10-30T06:25:52;5.80;;;2.70;;
61477;SDS011;47345;52.334;10.392;2022-10-30T06:28:23;8.80;;;3.00;;
61477;SDS011;47345;52.334;10.392;2022-10-30T06:30:54;5.20;;;3.00;;
61477;SDS011;47345;52.334;10.392;2022-10-30T06:33:24;9.60;;;3.40;;
61477;SDS011;47345;52.334;10.392;2022-10-30T06:35:55;6.10;;;3.50;;
61477;SDS011;47345;52.334;10.392;2022-10-30T06:38:26;4.70;;;3.30;;
61477;SDS011;47345;52.334;10.392;2022-10-30T06:40:56;6.90;;;3.80;;
61477;SDS011;47345;52.334;10.392;2022-10-30T06:43:27;7.70;;;3.90;;
61477;SDS011;47345;52.334;10.392;2022-10-30T06:45:57;8.50;;;3.60;;
61477;SDS011;47345;52.334;10.392;2022-10-30T06:48:29;6.50;;;3.70;;
61477;SDS011;47345;52.334;10.392;2022-10-30T06:51:00;7.50;;;3.10;;
61477;SDS011;47345;52.334;10.392;2022-10-30T06:53:31;6.70;;;4.20;;
61477;SDS011;47345;52.334;10.392;2022-10-30T06:56:02;9.50;;;3.80;;
61477;SDS011;47345;52.334;10.392;2022-10-30T06:58:33;9.20;;;3.60;;
61477;SDS011;47345;52.334;10.392;2022-10-30T07:01:05;14.30;;;3.90;;
61477;SDS011;47345;52.334;10.392;2022-10-30T07:03:37;10.90;;;4.00;;
61477;SDS011;47345;52.334;10.392;2022-10-30T07:06:07;6.00;;;3.70;;
61477;SDS011;47345;52.334;10.392;2022-10-30T07:08:38;7.30;;;3.70;;
61477;SDS011;47345;52.334;10.392;2022-10-30T07:11:08;26.50;;;13.50;;
61477;SDS011;47345;52.334;10.392;2022-10-30T07:13:39;21.20;;;11.60;;
61477;SDS011;47345;52.334;10.392;2022-10-30T07:16:10;19.00;;;9.40;;
61477;SDS011;47345;52.334;10.392;2022-10-30T07:18:41;16.80;;;8.80;;
61477;SDS011;47345;52.334;10.392;2022-10-30T07:21:12;16.60;;;8.50;;
61477;SDS011;47345;52.334;10.392;2022-10-30T07:23:43;12.80;;;8.00;;
61477;SDS011;47345;52.334;10.392;2022-10-30T07:26:14;15.60;;;6.20;;
61477;SDS011;47345;52.334;10.392;2022-10-30T07:28:45;8.30;;;5.40;;
61477;SDS011;47345;52.334;10.392;2022-10-30T07:31:15;5.90;;;3.70;;
61477;SDS011;47345;52.334;10.392;2022-10-30T07:34:06;6.70;;;3.70;;
61477;SDS011;47345;52.334;10.392;2022-10-30T07:36:37;12.30;;;3.80;;
61477;SDS011;47345;52.334;10.392;2022-10-30T07:39:08;5.60;;;3.40;;
61477;SDS011;47345;52.334;10.392;2022-10-30T07:41:38;5.00;;;3.30;;
61477;SDS011;47345;52.334;10.392;2022-10-30T07:44:16;7.20;;;3.30;;
61477;SDS011;47345;52.334;10.392;2022-10-30T07:46:47;7.50;;;3.70;;
61477;SDS011;47345;52.334;10.392;2022-10-30T07:49:17;5.80;;;3.30;;
61477;SDS011;47345;52.334;10.392;2022-10-30T07:51:48;6.70;;;3.20;;
61477;SDS011;47345;52.334;10.392;2022-10-30T07:54:18;12.90;;;8.00;;
61477;SDS011;47345;52.334;10.392;2022-10-30T07:56:49;28.60;;;12.60;;
61477;SDS011;47345;52.334;10.392;2022-10-30T07:59:20;18.30;;;9.60;;
61477;SDS011;47345;52.334;10.392;2022-10-30T08:01:50;13.80;;;8.00;;
61477;SDS011;47345;52.334;10.392;2022-10-30T08:04:21;7.20;;;4.70;;
61477;SDS011;47345;52.334;10.392;2022-10-30T08:06:52;6.10;;;3.60;;
61477;SDS011;47345;52.334;10.392;2022-10-30T08:09:22;8.20;;;4.00;;
61477;SDS011;47345;52.334;10.392;2022-10-30T08:11:53;4.50;;;3.50;;
61477;SDS011;47345;52.334;10.392;2022-10-30T08:14:24;6.70;;;3.50;;
61477;SDS011;47345;52.334;10.392;2022-10-30T08:16:55;4.70;;;3.50;;
61477;SDS011;47345;52.334;10.392;2022-10-30T08:19:26;5.10;;;3.70;;
61477;SDS011;47345;52.334;10.392;2022-10-30T08:21:57;5.80;;;3.80;;
61477;SDS011;47345;52.334;10.392;2022-10-30T08:24:28;5.70;;;4.00;;
61477;SDS011;47345;52.334;10.392;2022-10-30T08:27:00;5.90;;;3.80;;
61477;SDS011;47345;52.334;10.392;2022-10-30T08:29:31;5.90;;;3.60;;
61477;SDS011;47345;52.334;10.392;2022-10-30T08:32:02;5.40;;;3.60;;
61477;SDS011;47345;52.334;10.392;2022-10-30T08:34:33;7.10;;;3.60;;
61477;SDS011;47345;52.334;10.392;2022-10-30T08:37:03;7.10;;;3.70;;
61477;SDS011;47345;52.334;10.392;2022-10-30T08:39:35;5.00;;;3.70;;
61477;SDS011;47345;52.334;10.392;2022-10-30T08:42:06;5.90;;;3.50;;
61477;SDS011;47345;52.334;10.392;2022-10-30T08:44:36;7.30;;;4.30;;
61477;SDS011;47345;52.334;10.392;2022-10-30T08:47:07;8.70;;;4.00;;
61477;SDS011;47345;52.334;10.392;2022-10-30T08:49:38;8.40;;;3.70;;
61477;SDS011;47345;52.334;10.392;2022-10-30T08:52:08;7.70;;;4.00;;
61477;SDS011;47345;52.334;10.392;2022-10-30T08:54:39;7.60;;;4.60;;
61477;SDS011;47345;52.334;10.392;2022-10-30T08:57:09;13.50;;;7.20;;
61477;SDS011;47345;52.334;10.392;2022-10-30T08:59:40;15.80;;;7.60;;
61477;SDS011;47345;52.334;10.392;2022-10-30T09:02:10;7.80;;;4.10;;
61477;SDS011;47345;52.334;10.392;2022-10-30T09:04:41;11.20;;;4.00;;
61477;SDS011;47345;52.334;10.392;2022-10-30T09:07:12;6.90;;;3.70;;
61477;SDS011;47345;52.334;10.392;2022-10-30T09:09:43;9.80;;;3.20;;
61477;SDS011;47345;52.334;10.392;2022-10-30T09:12:13;9.40;;;3.90;;
61477;SDS011;47345;52.334;10.392;2022-10-30T09:14:44;10.00;;;3.90;;
61477;SDS011;47345;52.334;10.392;2022-10-30T09:17:15;5.20;;;3.90;;
61477;SDS011;47345;52.334;10.392;2022-10-30T09:19:45;7.10;;;3.40;;
61477;SDS011;47345;52.334;10.392;2022-10-30T09:22:16;8.50;;;4.10;;
61477;SDS011;47345;52.334;10.392;2022-10-30T09:24:46;6.30;;;3.50;;
61477;SDS011;47345;52.334;10.392;2022-10-30T09:27:18;7.50;;;3.80;;
61477;SDS011;47345;52.334;10.392;2022-10-30T09:29:49;6.10;;;3.90;;
61477;SDS011;47345;52.334;10.392;2022-10-30T09:32:19;9.10;;;3.90;;
61477;SDS011;47345;52.334;10.392;2022-10-30T09:34:50;5.30;;;3.70;;
61477;SDS011;47345;52.334;10.392;2022-10-30T09:37:21;10.30;;;3.80;;
61477;SDS011;47345;52.334;10.392;2022-10-30T09:39:52;8.90;;;3.90;;
61477;SDS011;47345;52.334;10.392;2022-10-30T09:42:35;6.00;;;3.40;;
61477;SDS011;47345;52.334;10.392;2022-10-30T09:51:08;6.00;;;3.70;;
61477;SDS011;47345;52.334;10.392;2022-10-30T09:53:51;7.40;;;3.80;;
61477;SDS011;47345;52.334;10.392;2022-10-30T09:56:37;7.00;;;3.90;;
61477;SDS011;47345;52.334;10.392;2022-10-30T09:59:14;9.10;;;4.00;;
61477;SDS011;47345;52.334;10.392;2022-10-30T10:01:52;7.30;;;4.40;;
61477;SDS011;47345;52.334;10.392;2022-10-30T10:04:27;11.10;;;5.20;;
61477;SDS011;47345;52.334;10.392;2022-10-30T10:07:03;6.50;;;3.70;;
61477;SDS011;47345;52.334;10.392;2022-10-30T10:09:41;8.20;;;3.70;;
61477;SDS011;47345;52.334;10.392;2022-10-30T10:12:24;5.70;;;3.30;;
61477;SDS011;47345;52.334;10.392;2022-10-30T10:14:58;5.20;;;3.60;;
61477;SDS011;47345;52.334;10.392;2022-10-30T10:17:33;7.20;;;3.20;;
61477;SDS011;47345;52.334;10.392;2022-10-30T10:20:12;6.20;;;3.30;;
61477;SDS011;47345;52.334;10.392;2022-10-30T10:22:52;5.70;;;3.80;;
61477;SDS011;47345;52.334;10.392;2022-10-30T10:25:28;6.50;;;3.60;;
61477;SDS011;47345;52.334;10.392;2022-10-30T10:28:04;8.10;;;3.50;;
61477;SDS011;47345;52.334;10.392;2022-10-30T10:30:49;7.30;;;3.50;;
61477;SDS011;47345;52.334;10.392;2022-10-30T10:33:28;8.60;;;3.50;;
61477;SDS011;47345;52.334;10.392;2022-10-30T10:36:19;6.10;;;3.10;;
61477;SDS011;47345;52.334;10.392;2022-10-30T10:39:04;18.50;;;9.50;;
61477;SDS011;47345;52.334;10.392;2022-10-30T10:42:00;10.90;;;7.00;;
61477;SDS011;47345;52.334;10.392;2022-10-30T10:44:41;11.00;;;3.40;;
61477;SDS011;47345;52.334;10.392;2022-10-30T10:47:35;7.20;;;3.80;;
61477;SDS011;47345;52.334;10.392;2022-10-30T10:50:23;8.50;;;3.50;;
61477;SDS011;47345;52.334;10.392;2022-10-30T10:52:59;5.60;;;3.00;;
61477;SDS011;47345;52.334;10.392;2022-10-30T10:55:34;4.20;;;3.20;;
61477;SDS011;47345;52.334;10.392;2022-10-30T10:58:10;6.30;;;3.20;;
61477;SDS011;47345;52.334;10.392;2022-10-30T11:00:46;6.40;;;3.40;;
61477;SDS011;47345;52.334;10.392;2022-10-30T11:03:19;6.20;;;3.70;;
61477;SDS011;47345;52.334;10.392;2022-10-30T11:05:53;4.70;;;3.60;;
61477;SDS011;47345;52.334;10.392;2022-10-30T11:08:28;5.20;;;3.10;;
61477;SDS011;47345;52.334;10.392;2022-10-30T11:11:01;4.90;;;3.40;;
61477;SDS011;47345;52.334;10.392;2022-10-30T11:13:34;9.00;;;3.50;;
61477;SDS011;47345;52.334;10.392;2022-10-30T11:16:08;8.80;;;3.40;;
61477;SDS011;47345;52.334;10.392;2022-10-30T11:18:46;5.80;;;3.20;;
61477;SDS011;47345;52.334;10.392;2022-10-30T11:21:20;4.60;;;3.30;;
61477;SDS011;47345;52.334;10.392;2022-10-30T11:23:52;5.20;;;3.50;;
61477;SDS011;47345;52.334;10.392;2022-10-30T11:26:29;14.20;;;7.70;;
61477;SDS011;47345;52.334;10.392;2022-10-30T11:29:02;8.30;;;3.80;;
61477;SDS011;47345;52.334;10.392;2022-10-30T11:31:39;7.70;;;3.30;;
61477;SDS011;47345;52.334;10.392;2022-10-30T11:34:23;4.70;;;2.70;;
61477;SDS011;47345;52.334;10.392;2022-10-30T11:36:59;5.60;;;3.20;;
61477;SDS011;47345;52.334;10.392;2022-10-30T11:39:31;10.80;;;3.70;;
61477;SDS011;47345;52.334;10.392;2022-10-30T11:42:03;10.00;;;3.20;;
61477;SDS011;47345;52.334;10.392;2022-10-30T11:47:10;8.70;;;3.20;;
61477;SDS011;47345;52.334;10.392;2022-10-30T11:49:44;6.50;;;2.80;;
61477;SDS011;47345;52.334;10.392;2022-10-30T11:52:18;6.10;;;3.20;;
61477;SDS011;47345;52.334;10.392;2022-10-30T11:54:52;8.20;;;3.10;;
61477;SDS011;47345;52.334;10.392;2022-10-30T11:57:35;6.00;;;3.20;;
61477;SDS011;47345;52.334;10.392;2022-10-30T12:00:14;8.20;;;2.90;;
61477;SDS011;47345;52.334;10.392;2022-10-30T12:02:48;7.30;;;3.30;;
61477;SDS011;47345;52.334;10.392;2022-10-30T12:05:36;7.60;;;2.80;;
61477;SDS011;47345;52.334;10.392;2022-10-30T12:08:20;5.80;;;3.10;;
61477;SDS011;47345;52.334;10.392;2022-10-30T12:10:57;4.80;;;2.90;;
61477;SDS011;47345;52.334;10.392;2022-10-30T12:13:31;6.80;;;3.00;;
61477;SDS011;47345;52.334;10.392;2022-10-30T12:16:12;6.00;;;2.80;;
61477;SDS011;47345;52.334;10.392;2022-10-30T12:19:00;4.00;;;3.00;;
61477;SDS011;47345;52.334;10.392;2022-10-30T12:21:35;7.00;;;3.00;;
61477;SDS011;47345;52.334;10.392;2022-10-30T12:24:11;8.00;;;3.30;;
61477;SDS011;47345;52.334;10.392;2022-10-30T12:26:47;6.80;;;3.00;;
61477;SDS011;47345;52.334;10.392;2022-10-30T12:29:21;7.10;;;3.20;;
61477;SDS011;47345;52.334;10.392;2022-10-30T12:32:16;11.60;;;3.20;;
61477;SDS011;47345;52.334;10.392;2022-10-30T12:34:49;7.60;;;3.10;;
61477;SDS011;47345;52.334;10.392;2022-10-30T12:37:27;6.40;;;2.90;;
61477;SDS011;47345;52.334;10.392;2022-10-30T12:40:02;4.30;;;2.70;;
61477;SDS011;47345;52.334;10.392;2022-10-30T12:42:39;5.50;;;2.80;;
61477;SDS011;47345;52.334;10.392;2022-10-30T12:45:13;9.30;;;3.20;;
61477;SDS011;47345;52.334;10.392;2022-10-30T12:47:49;14.20;;;3.60;;
61477;SDS011;47345;52.334;10.392;2022-10-30T12:50:25;9.50;;;3.00;;
61477;SDS011;47345;52.334;10.392;2022-10-30T12:53:01;10.10;;;5.00;;
61477;SDS011;47345;52.334;10.392;2022-10-30T12:55:39;11.10;;;6.50;;
61477;SDS011;47345;52.334;10.392;2022-10-30T12:58:15;8.10;;;3.00;;
61477;SDS011;47345;52.334;10.392;2022-10-30T13:00:53;6.20;;;2.80;;
61477;SDS011;47345;52.334;10.392;2022-10-30T13:03:30;4.50;;;3.00;;
61477;SDS011;47345;52.334;10.392;2022-10-30T13:06:06;6.50;;;2.90;;
61477;SDS011;47345;52.334;10.392;2022-10-30T13:08:46;5.60;;;3.10;;
61477;SDS011;47345;52.334;10.392;2022-10-30T13:11:27;7.90;;;3.30;;
61477;SDS011;47345;52.334;10.392;2022-10-30T13:14:10;7.90;;;3.00;;
61477;SDS011;47345;52.334;10.392;2022-10-30T13:16:44;6.40;;;3.30;;
61477;SDS011;47345;52.334;10.392;2022-10-30T13:19:14;4.40;;;3.20;;
61477;SDS011;47345;52.334;10.392;2022-10-30T13:21:47;8.50;;;3.40;;
61477;SDS011;47345;52.334;10.392;2022-10-30T13:24:24;8.80;;;3.20;;
61477;SDS011;47345;52.334;10.392;2022-10-30T13:27:07;8.20;;;5.00;;
61477;SDS011;47345;52.334;10.392;2022-10-30T13:29:44;6.60;;;3.60;;
61477;SDS011;47345;52.334;10.392;2022-10-30T13:32:28;6.20;;;3.20;;
61477;SDS011;47345;52.334;10.392;2022-10-30T13:40:19;5.60;;;3.70;;
61477;SDS011;47345;52.334;10.392;2022-10-30T13:42:57;4.50;;;3.10;;
61477;SDS011;47345;52.334;10.392;2022-10-30T13:45:43;4.10;;;2.80;;
61477;SDS011;47345;52.334;10.392;2022-10-30T13:48:27;8.20;;;3.10;;
61477;SDS011;47345;52.334;10.392;2022-10-30T13:51:13;6.30;;;3.90;;
61477;SDS011;47345;52.334;10.392;2022-10-30T13:53:55;9.70;;;3.40;;
61477;SDS011;47345;52.334;10.392;2022-10-30T13:56:32;6.30;;;2.90;;
61477;SDS011;47345;52.334;10.392;2022-10-30T13:59:06;6.60;;;3.70;;
61477;SDS011;47345;52.334;10.392;2022-10-30T14:01:48;7.20;;;3.60;;
61477;SDS011;47345;52.334;10.392;2022-10-30T14:04:31;4.80;;;3.20;;
61477;SDS011;47345;52.334;10.392;2022-10-30T14:07:15;6.00;;;3.40;;
61477;SDS011;47345;52.334;10.392;2022-10-30T14:09:55;8.00;;;3.60;;
61477;SDS011;47345;52.334;10.392;2022-10-30T14:15:26;6.70;;;2.90;;
61477;SDS011;47345;52.334;10.392;2022-10-30T14:21:24;6.10;;;3.30;;
61477;SDS011;47345;52.334;10.392;2022-10-30T14:24:03;6.40;;;3.40;;
61477;SDS011;47345;52.334;10.392;2022-10-30T14:26:44;9.60;;;6.30;;
61477;SDS011;47345;52.334;10.392;2022-10-30T14:35:32;10.20;;;4.20;;
61477;SDS011;47345;52.334;10.392;2022-10-30T14:41:21;8.30;;;3.70;;
61477;SDS011;47345;52.334;10.392;2022-10-30T14:47:18;5.30;;;3.10;;
61477;SDS011;47345;52.334;10.392;2022-10-30T14:50:03;7.80;;;3.60;;
61477;SDS011;47345;52.334;10.392;2022-10-30T14:52:49;4.70;;;3.20;;
61477;SDS011;47345;52.334;10.392;2022-10-30T14:55:30;10.40;;;3.80;;
61477;SDS011;47345;52.334;10.392;2022-10-30T14:58:16;7.20;;;3.70;;
61477;SDS011;47345;52.334;10.392;2022-10-30T15:00:51;7.30;;;3.70;;
61477;SDS011;47345;52.334;10.392;2022-10-30T15:03:46;5.30;;;3.10;;
61477;SDS011;47345;52.334;10.392;2022-10-30T15:06:28;8.20;;;3.40;;
61477;SDS011;47345;52.334;10.392;2022-10-30T15:09:09;9.70;;;4.10;;
61477;SDS011;47345;52.334;10.392;2022-10-30T15:14:54;6.10;;;3.60;;
61477;SDS011;47345;52.334;10.392;2022-10-30T15:17:29;7.70;;;3.30;;
61477;SDS011;47345;52.334;10.392;2022-10-30T15:20:05;5.00;;;3.50;;
61477;SDS011;47345;52.334;10.392;2022-10-30T15:22:43;7.40;;;3.60;;
61477;SDS011;47345;52.334;10.392;2022-10-30T15:25:17;10.80;;;3.70;;
61477;SDS011;47345;52.334;10.392;2022-10-30T15:27:50;7.60;;;3.40;;
61477;SDS011;47345;52.334;10.392;2022-10-30T15:30:24;15.70;;;4.10;;
61477;SDS011;47345;52.334;10.392;2022-10-30T15:32:55;9.50;;;4.00;;
61477;SDS011;47345;52.334;10.392;2022-10-30T15:35:27;9.10;;;4.30;;
61477;SDS011;47345;52.334;10.392;2022-10-30T15:38:01;8.70;;;4.00;;
61477;SDS011;47345;52.334;10.392;2022-10-30T15:40:33;6.60;;;3.80;;
61477;SDS011;47345;52.334;10.392;2022-10-30T15:43:05;5.10;;;3.60;;
61477;SDS011;47345;52.334;10.392;2022-10-30T15:45:40;8.60;;;3.70;;
61477;SDS011;47345;52.334;10.392;2022-10-30T15:48:16;5.20;;;3.70;;
61477;SDS011;47345;52.334;10.392;2022-10-30T15:50:53;11.60;;;3.60;;
61477;SDS011;47345;52.334;10.392;2022-10-30T15:53:31;7.30;;;3.70;;